Terminal Aerodrome Forecast
Issued by NWS

Home | Current Version | Previous Version | Graphics & Text | Print | Product List | Glossary On
Versions: 1 2 3 4 5 6 7 8 9 10 11 12 13 14 15 16 17 18 19 20 21 22
000
FTUS43 KMPX 191147 CCA
TAFAXN
TAF COR
KAXN 191147Z 1912/2012 16006KT 2SM BR BKN002
     FM191330 18008KT 3SM BR FEW004
     FM191800 17010KT 6SM BR SCT010
     FM192200 17009KT 2SM BR OVC010
     FM200400 16009KT 1/4SM FG VV002=

USA.gov is the U.S. government's official web portal to all federal, state and local government web resources and services.